Current Conditions
Clear
Conditions



Pressure
1020.92 (hPa) - 30.15 (inHG)
Visibility

10.0 (km) - 6.2 (miles)
   Temperature
10  °C
50°F
9  °C
Dewpoint
94  %
 Humidity
   Wind Speed
5  km/h
3  kts
3  mph
1.3  m/s
   Wind Direction
 10°
Due North
   Airport Data
LIME
Location Milan Bergamo Airport 45 km (27.97 mi)
Metar :LIME 291920Z 01003KT CAVOK 10/09 Q1021 NOSIG
Thu 29th October 20:20 pm
   Raw Metar Info
Raw METAR is the most common format in the world for the transmission of observational weather data. It is highly standardized through the International Civil Aviation Organization (ICAO), which allows it to be understood throughout most of the world.
   API Info
Data Provided by
https://www.checkwx.com/weather/LIME
   © Info
CSS/SVG/PHP scripts were developed by weather34.com for use in the weather34 template © 2015-2020

Guide Info provided by Metar-Wikipedia